createdAt,value
2019-06-01T00:02:15.766Z,91.00
2019-06-01T00:04:45.321Z,90.60
2019-06-01T00:07:14.807Z,90.20
2019-06-01T00:09:45.082Z,89.80
2019-06-01T00:12:14.995Z,89.20
2019-06-01T00:14:45.589Z,89.20
2019-06-01T00:17:15.603Z,89.00
2019-06-01T00:19:46.185Z,90.00
2019-06-01T00:22:15.520Z,89.40
2019-06-01T00:24:45.841Z,89.40
2019-06-01T00:27:15.873Z,89.70
2019-06-01T00:29:46.788Z,90.00
2019-06-01T00:32:16.970Z,90.00
2019-06-01T00:34:47.630Z,90.20
2019-06-01T00:37:16.774Z,90.30
2019-06-01T00:39:45.891Z,90.30
2019-06-01T00:42:15.356Z,90.50
2019-06-01T00:44:46.215Z,90.80
2019-06-01T00:47:15.522Z,91.00
2019-06-01T00:49:46.656Z,91.10
2019-06-01T00:52:17.696Z,91.30
2019-06-01T00:54:47.935Z,91.50
2019-06-01T00:57:18.297Z,91.40
2019-06-01T00:59:48.186Z,91.50
2019-06-01T01:02:17.506Z,91.10
2019-06-01T01:04:48.328Z,91.10
2019-06-01T01:07:17.448Z,91.10
2019-06-01T01:09:48.753Z,91.40
2019-06-01T01:12:18.231Z,91.50
2019-06-01T01:14:47.589Z,91.40
2019-06-01T01:17:16.646Z,91.60
2019-06-01T01:19:47.610Z,91.70
2019-06-01T01:22:18.906Z,91.70
2019-06-01T01:24:48.842Z,91.50
2019-06-01T01:27:17.932Z,91.10
2019-06-01T01:29:47.369Z,91.10
2019-06-01T01:32:17.135Z,91.00
2019-06-01T01:34:47.383Z,91.00
2019-06-01T01:37:17.022Z,90.80
2019-06-01T01:39:47.935Z,90.60
2019-06-01T01:42:18.574Z,90.50
2019-06-01T01:44:48.576Z,90.60
2019-06-01T01:47:18.231Z,90.90
2019-06-01T01:49:47.647Z,91.00
2019-06-01T01:52:17.645Z,91.00
2019-06-01T01:54:47.014Z,90.60
2019-06-01T01:57:16.354Z,90.70
2019-06-01T01:59:45.664Z,90.60
2019-06-01T02:02:14.846Z,90.90
2019-06-01T02:04:43.971Z,90.90
2019-06-01T02:07:14.650Z,91.20
2019-06-01T02:09:43.738Z,91.10
2019-06-01T02:12:12.884Z,91.00
2019-06-01T02:14:42.597Z,91.70
2019-06-01T02:17:11.997Z,92.10
2019-06-01T02:19:41.625Z,92.30
2019-06-01T02:22:11.444Z,92.50
2019-06-01T02:24:40.725Z,92.40
2019-06-01T02:27:10.515Z,92.30
2019-06-01T02:29:40.268Z,92.60
2019-06-01T02:32:09.652Z,92.70
2019-06-01T02:34:39.321Z,92.80
2019-06-01T02:37:09.073Z,92.70
2019-06-01T02:39:38.773Z,92.80
2019-06-01T02:42:09.600Z,93.00
2019-06-01T02:44:38.782Z,92.90
2019-06-01T02:47:08.788Z,93.00
2019-06-01T02:49:38.795Z,93.20
2019-06-01T02:52:09.731Z,93.00
2019-06-01T02:54:39.305Z,92.60
2019-06-01T02:57:09.259Z,92.30
2019-06-01T02:59:39.380Z,91.90
2019-06-01T03:02:13.331Z,91.80
2019-06-01T03:04:41.534Z,91.60
2019-06-01T03:07:12.364Z,91.40
2019-06-01T03:09:47.983Z,91.30
2019-06-01T03:12:19.564Z,91.20
2019-06-01T03:14:53.569Z,91.00
2019-06-01T03:17:26.398Z,91.10
2019-06-01T03:19:57.431Z,91.50
2019-06-01T03:22:28.392Z,91.60
2019-06-01T03:25:00.364Z,91.60
2019-06-01T03:27:33.033Z,91.50
2019-06-01T03:30:06.655Z,91.50
2019-06-01T03:32:37.647Z,91.40
2019-06-01T03:35:08.741Z,91.50
2019-06-01T03:37:38.583Z,91.50
2019-06-01T03:40:18.580Z,91.50
2019-06-01T03:42:38.795Z,91.90
2019-06-01T03:45:09.519Z,92.10
2019-06-01T03:47:39.058Z,92.40
2019-06-01T03:50:09.215Z,92.90
2019-06-01T03:52:38.787Z,93.10
2019-06-01T03:55:08.311Z,93.00
2019-06-01T03:57:38.055Z,92.30
2019-06-01T04:00:09.266Z,91.90
2019-06-01T04:02:39.009Z,91.70
2019-06-01T04:05:09.330Z,91.70
2019-06-01T04:07:39.246Z,91.30
2019-06-01T04:10:09.952Z,91.10
2019-06-01T04:12:39.936Z,91.10
2019-06-01T04:15:12.830Z,91.30
2019-06-01T04:17:40.464Z,91.20
2019-06-01T04:20:10.235Z,91.30
2019-06-01T04:22:39.690Z,91.20
2019-06-01T04:25:10.220Z,90.90
2019-06-01T04:27:39.837Z,90.80
2019-06-01T04:30:09.570Z,90.80
2019-06-01T04:32:49.250Z,90.80
2019-06-01T04:35:11.120Z,90.40
2019-06-01T04:37:40.406Z,90.30
2019-06-01T04:40:09.618Z,90.80
2019-06-01T04:42:38.741Z,90.70
2019-06-01T04:45:09.144Z,90.70
2019-06-01T04:47:39.566Z,90.30
2019-06-01T04:50:10.976Z,89.80
2019-06-01T04:52:41.000Z,89.60
2019-06-01T04:55:11.103Z,90.10
2019-06-01T04:57:41.182Z,90.00
2019-06-01T05:00:25.113Z,89.60
2019-06-01T05:02:42.084Z,88.90
2019-06-01T05:05:11.629Z,88.10
2019-06-01T05:07:41.478Z,88.40
2019-06-01T05:10:11.600Z,88.40
2019-06-01T05:12:41.208Z,87.50
2019-06-01T05:15:11.905Z,87.20
2019-06-01T05:17:48.458Z,87.70
2019-06-01T05:20:17.723Z,86.80
2019-06-01T05:22:47.392Z,86.70
2019-06-01T05:25:17.182Z,87.00
2019-06-01T05:27:52.612Z,86.30
2019-06-01T05:31:04.083Z,86.00
2019-06-01T05:33:37.290Z,85.60
2019-06-01T05:36:04.318Z,86.60
2019-06-01T05:38:33.943Z,85.70
2019-06-01T05:41:03.637Z,85.80
2019-06-01T05:43:33.004Z,85.80
2019-06-01T05:46:02.371Z,85.40
2019-06-01T05:48:32.449Z,84.80
2019-06-01T05:51:01.580Z,84.80
2019-06-01T05:53:30.922Z,84.60
2019-06-01T05:56:01.057Z,83.00
2019-06-01T05:58:31.275Z,82.80
2019-06-01T06:01:00.585Z,82.80
2019-06-01T06:03:39.865Z,82.20
2019-06-01T06:06:01.103Z,82.40
2019-06-01T06:08:30.425Z,81.20
2019-06-01T06:10:59.813Z,82.00
2019-06-01T06:13:29.504Z,81.90
2019-06-01T06:17:12.854Z,82.20
2019-06-01T06:20:07.692Z,79.90
2019-06-01T06:23:05.713Z,78.30
2019-06-01T06:25:49.651Z,77.90
2019-06-01T06:28:19.005Z,77.10
2019-06-01T06:30:48.065Z,76.00
2019-06-01T06:33:17.428Z,76.20
2019-06-01T06:35:47.168Z,77.10
2019-06-01T06:38:17.704Z,77.20
2019-06-01T06:40:48.205Z,75.90
2019-06-01T06:43:20.075Z,76.20
2019-06-01T06:45:45.976Z,76.80
2019-06-01T06:48:14.979Z,77.20
2019-06-01T06:50:43.345Z,76.80
2019-06-01T06:53:24.455Z,75.90
2019-06-01T06:55:41.866Z,75.90
2019-06-01T06:58:09.951Z,74.70
2019-06-01T07:00:38.060Z,74.30
2019-06-01T07:03:06.375Z,74.40
2019-06-01T07:05:34.735Z,74.80
2019-06-01T07:08:03.196Z,74.20
2019-06-01T07:10:31.233Z,72.70
2019-06-01T07:12:59.586Z,73.40
2019-06-01T07:15:28.377Z,72.90
2019-06-01T07:17:56.496Z,72.70
2019-06-01T07:20:25.698Z,72.40
2019-06-01T07:22:54.290Z,72.10
2019-06-01T07:25:23.210Z,72.10
2019-06-01T07:27:51.701Z,71.40
2019-06-01T07:30:20.061Z,71.60
2019-06-01T07:32:48.246Z,71.80
2019-06-01T07:35:16.665Z,71.10
2019-06-01T07:37:44.956Z,71.70
2019-06-01T07:40:14.089Z,71.00
2019-06-01T07:42:42.710Z,70.30
2019-06-01T07:45:11.080Z,70.10
2019-06-01T07:47:39.517Z,69.20
2019-06-01T07:50:07.613Z,68.50
2019-06-01T07:52:35.848Z,68.70
2019-06-01T07:55:13.246Z,68.50
2019-06-01T07:57:43.494Z,68.60
2019-06-01T08:00:11.730Z,66.30
2019-06-01T08:02:50.366Z,65.60
2019-06-01T08:05:18.498Z,67.40
2019-06-01T08:07:46.819Z,67.40
2019-06-01T08:10:14.886Z,67.80
2019-06-01T08:12:43.257Z,67.90
2019-06-01T08:15:11.321Z,68.40
2019-06-01T08:17:39.895Z,67.60
2019-06-01T08:20:08.061Z,67.20
2019-06-01T08:22:36.441Z,66.00
2019-06-01T08:25:04.773Z,65.90
2019-06-01T08:27:33.487Z,64.60
2019-06-01T08:30:02.090Z,64.30
2019-06-01T08:32:32.908Z,64.30
2019-06-01T08:35:08.676Z,60.00
2019-06-01T08:37:33.630Z,59.60
2019-06-01T08:40:01.874Z,56.30
2019-06-01T08:42:31.360Z,53.30
2019-06-01T08:44:59.942Z,50.30
2019-06-01T08:47:29.882Z,49.40
2019-06-01T08:49:58.302Z,48.40
2019-06-01T08:52:28.004Z,48.50
2019-06-01T08:54:57.732Z,50.00
2019-06-01T08:57:26.507Z,50.60
2019-06-01T08:59:54.605Z,51.10
2019-06-01T09:02:24.542Z,51.90
2019-06-01T09:04:53.104Z,50.80
2019-06-01T09:07:21.746Z,48.50
2019-06-01T09:09:49.752Z,48.20
2019-06-01T09:12:17.893Z,47.00
2019-06-01T09:14:46.351Z,44.40
2019-06-01T09:17:18.563Z,44.40
2019-06-01T09:19:44.878Z,40.30
2019-06-01T09:22:13.210Z,36.70
2019-06-01T09:24:41.564Z,32.40
2019-06-01T09:27:09.631Z,32.40
2019-06-01T09:29:38.048Z,34.90
2019-06-01T09:32:10.903Z,34.00
2019-06-01T09:34:36.837Z,33.40
2019-06-01T09:37:08.205Z,32.20
2019-06-01T09:39:37.308Z,33.00
2019-06-01T09:42:05.900Z,29.90
2019-06-01T09:44:35.242Z,28.10
2019-06-01T09:47:03.473Z,27.90
2019-06-01T09:49:32.612Z,28.00
2019-06-01T09:52:02.666Z,26.10
2019-06-01T09:54:32.725Z,26.10
2019-06-01T09:57:01.114Z,25.80
2019-06-01T09:59:30.040Z,25.20
2019-06-01T10:01:58.641Z,24.80
2019-06-01T10:04:28.177Z,24.50
2019-06-01T10:06:56.609Z,24.20
2019-06-01T10:09:25.526Z,24.20
2019-06-01T10:11:56.655Z,22.60
2019-06-01T10:14:24.982Z,22.20
2019-06-01T10:16:53.269Z,23.60
2019-06-01T10:19:24.394Z,22.60
2019-06-01T10:21:54.492Z,22.80
2019-06-01T10:24:31.085Z,22.20
2019-06-01T10:26:59.322Z,22.10
2019-06-01T10:29:34.968Z,22.70
2019-06-01T10:32:03.051Z,24.60
2019-06-01T10:34:35.827Z,27.60
2019-06-01T10:37:07.221Z,30.00
2019-06-01T10:39:37.516Z,31.90
2019-06-01T10:42:07.079Z,34.80
2019-06-01T10:44:41.779Z,37.90
2019-06-01T10:47:07.903Z,39.80
2019-06-01T10:49:38.018Z,42.70
2019-06-01T10:52:07.665Z,44.60
2019-06-01T10:54:38.297Z,46.40
2019-06-01T10:57:08.019Z,46.10
2019-06-01T10:59:38.421Z,46.90
2019-06-01T11:02:08.387Z,48.50
2019-06-01T11:04:38.934Z,49.10
2019-06-01T11:07:08.404Z,49.50
2019-06-01T11:09:37.617Z,49.60
2019-06-01T11:12:11.863Z,49.00
2019-06-01T11:14:41.359Z,49.30
2019-06-01T11:17:10.669Z,49.60
2019-06-01T11:19:39.778Z,50.50
2019-06-01T11:22:09.698Z,50.50
2019-06-01T11:24:39.525Z,50.90
2019-06-01T11:27:10.812Z,50.90
2019-06-01T11:30:18.543Z,49.60
2019-06-01T11:32:10.776Z,50.60
2019-06-01T11:34:42.460Z,51.90
2019-06-01T11:37:15.207Z,51.20
2019-06-01T11:39:44.691Z,50.70
2019-06-01T11:42:13.950Z,52.50
2019-06-01T11:44:44.913Z,52.30
2019-06-01T11:47:14.561Z,52.50
2019-06-01T11:49:45.043Z,52.40
2019-06-01T11:52:14.970Z,53.00
2019-06-01T11:54:45.433Z,53.70
2019-06-01T11:57:15.299Z,54.10
2019-06-01T11:59:45.709Z,54.20
2019-06-01T12:02:17.618Z,53.50
2019-06-01T12:04:47.955Z,52.80
2019-06-01T12:07:18.387Z,53.50
2019-06-01T12:09:47.789Z,53.80
2019-06-01T12:12:16.498Z,53.80
2019-06-01T12:14:48.539Z,52.00
2019-06-01T12:17:17.684Z,52.10
2019-06-01T12:19:47.159Z,51.50
2019-06-01T12:22:16.934Z,51.90
2019-06-01T12:24:47.496Z,51.30
2019-06-01T12:27:16.747Z,51.80
2019-06-01T12:29:45.949Z,51.10
2019-06-01T12:32:14.907Z,49.80
2019-06-01T12:34:44.487Z,50.60
2019-06-01T12:37:14.296Z,51.10
2019-06-01T12:39:44.404Z,52.40
2019-06-01T12:42:14.427Z,52.40
2019-06-01T12:44:43.959Z,52.50
2019-06-01T12:47:13.651Z,52.70
2019-06-01T12:49:44.078Z,53.10
2019-06-01T12:52:13.247Z,50.60
2019-06-01T12:54:42.947Z,51.50
2019-06-01T12:57:12.187Z,52.40
2019-06-01T12:59:43.163Z,52.20
2019-06-01T13:02:12.703Z,52.70
2019-06-01T13:04:42.823Z,52.80
2019-06-01T13:07:12.487Z,52.20
2019-06-01T13:09:43.787Z,52.50
2019-06-01T13:12:13.883Z,53.00
2019-06-01T13:14:45.097Z,54.10
2019-06-01T13:17:20.606Z,53.60
2019-06-01T13:19:55.864Z,54.40
2019-06-01T13:22:25.955Z,55.20
2019-06-01T13:24:55.505Z,55.30
2019-06-01T13:27:27.071Z,54.30
2019-06-01T13:29:57.020Z,54.30
2019-06-01T13:32:26.672Z,53.00
2019-06-01T13:34:55.760Z,53.70
2019-06-01T13:37:25.160Z,53.30
2019-06-01T13:39:58.069Z,53.70
2019-06-01T13:42:26.156Z,53.40
2019-06-01T13:44:55.619Z,53.70
2019-06-01T13:47:26.066Z,53.50
2019-06-01T13:49:55.252Z,53.90
2019-06-01T13:52:25.866Z,53.80
2019-06-01T13:54:55.587Z,54.50
2019-06-01T13:57:25.035Z,54.30
2019-06-01T13:59:55.054Z,54.20
2019-06-01T14:02:28.109Z,54.30
2019-06-01T14:04:57.635Z,53.70
2019-06-01T14:07:27.006Z,54.20
2019-06-01T14:09:56.762Z,52.50
2019-06-01T14:12:26.483Z,52.70
2019-06-01T14:14:55.817Z,52.80
2019-06-01T14:17:25.743Z,53.50
2019-06-01T14:19:55.918Z,53.70
2019-06-01T14:22:25.119Z,53.00
2019-06-01T14:25:10.392Z,54.80
2019-06-01T14:27:26.167Z,54.70
2019-06-01T14:29:56.501Z,54.80
2019-06-01T14:32:26.070Z,54.40
2019-06-01T14:34:56.982Z,54.80
2019-06-01T14:37:26.199Z,54.20
2019-06-01T14:39:55.254Z,53.80
2019-06-01T14:42:24.605Z,53.30
2019-06-01T14:44:58.194Z,52.80
2019-06-01T14:47:29.237Z,52.70
2019-06-01T14:49:58.436Z,54.40
2019-06-01T14:52:28.202Z,54.60
2019-06-01T14:54:58.063Z,54.40
2019-06-01T14:57:27.479Z,53.80
2019-06-01T14:59:58.204Z,52.90
2019-06-01T15:02:28.057Z,53.60
2019-06-01T15:04:58.703Z,54.10
2019-06-01T15:07:28.472Z,54.20
2019-06-01T15:09:58.454Z,53.80
2019-06-01T15:12:28.094Z,54.60
2019-06-01T15:14:57.611Z,54.70
2019-06-01T15:17:27.487Z,54.30
2019-06-01T15:19:58.866Z,54.30
2019-06-01T15:22:28.757Z,55.30
2019-06-01T15:24:58.476Z,54.60
2019-06-01T15:27:28.043Z,55.20
2019-06-01T15:29:58.884Z,55.50
2019-06-01T15:32:28.788Z,55.90
2019-06-01T15:34:59.892Z,55.70
2019-06-01T15:37:29.167Z,55.40
2019-06-01T15:39:58.878Z,55.60
2019-06-01T15:42:28.369Z,55.60
2019-06-01T15:44:59.205Z,54.80
2019-06-01T15:47:29.127Z,55.80
2019-06-01T15:49:59.898Z,55.60
2019-06-01T15:52:29.693Z,55.10
2019-06-01T15:55:00.438Z,55.80
2019-06-01T15:57:30.631Z,55.30
2019-06-01T16:00:00.687Z,54.40
2019-06-01T16:02:30.917Z,55.60
2019-06-01T16:05:01.303Z,55.20
2019-06-01T16:07:31.208Z,55.30
2019-06-01T16:10:05.283Z,55.50
2019-06-01T16:12:31.597Z,55.50
2019-06-01T16:15:02.122Z,55.60
2019-06-01T16:17:31.203Z,55.50
2019-06-01T16:20:02.177Z,55.70
2019-06-01T16:22:32.190Z,56.60
2019-06-01T16:25:02.563Z,55.50
2019-06-01T16:27:31.833Z,55.00
2019-06-01T16:30:03.836Z,55.00
2019-06-01T16:32:32.954Z,55.00
2019-06-01T16:35:03.066Z,55.00
2019-06-01T16:37:41.869Z,54.70
2019-06-01T16:40:11.139Z,54.70
2019-06-01T16:42:40.254Z,54.40
2019-06-01T16:45:10.944Z,54.00
2019-06-01T16:47:41.109Z,54.00
2019-06-01T16:50:11.014Z,54.10
2019-06-01T16:52:40.680Z,54.00
2019-06-01T16:55:11.386Z,54.00
2019-06-01T16:57:41.702Z,54.20
2019-06-01T17:00:10.442Z,53.70
2019-06-01T17:02:39.025Z,53.90
2019-06-01T17:05:07.557Z,52.90
2019-06-01T17:07:37.217Z,53.60
2019-06-01T17:10:21.653Z,52.70
2019-06-01T17:12:42.081Z,52.90
2019-06-01T17:15:08.629Z,53.10
2019-06-01T17:17:38.021Z,51.90
2019-06-01T17:20:09.906Z,51.50
2019-06-01T17:22:39.416Z,51.00
2019-06-01T17:25:08.977Z,50.60
2019-06-01T17:27:38.461Z,50.30
2019-06-01T17:30:11.500Z,50.10
2019-06-01T17:32:39.419Z,50.60
2019-06-01T17:35:09.141Z,51.30
2019-06-01T17:37:38.610Z,51.30
2019-06-01T17:40:08.502Z,51.20
2019-06-01T17:42:38.410Z,50.40
2019-06-01T17:45:09.476Z,49.90
2019-06-01T17:47:40.904Z,50.20
2019-06-01T17:50:11.794Z,50.50
2019-06-01T17:52:41.289Z,50.90
2019-06-01T17:55:13.211Z,49.90
2019-06-01T17:57:43.998Z,50.30
2019-06-01T18:00:17.126Z,49.40
2019-06-01T18:02:47.132Z,49.00
2019-06-01T18:05:18.830Z,49.00
2019-06-01T18:07:48.553Z,48.70
2019-06-01T18:10:18.545Z,49.30
2019-06-01T18:12:49.081Z,50.00
2019-06-01T18:15:18.935Z,50.30
2019-06-01T18:17:48.925Z,50.80
2019-06-01T18:20:20.398Z,50.90
2019-06-01T18:22:49.721Z,51.20
2019-06-01T18:25:27.353Z,51.60
2019-06-01T18:27:56.639Z,51.30
2019-06-01T18:30:26.652Z,52.70
2019-06-01T18:32:57.604Z,52.30
2019-06-01T18:35:28.189Z,52.50
2019-06-01T18:37:58.430Z,53.10
2019-06-01T18:40:27.623Z,53.90
2019-06-01T18:43:00.141Z,53.90
2019-06-01T18:45:29.671Z,54.00
2019-06-01T18:47:59.448Z,54.10
2019-06-01T18:50:28.643Z,54.60
2019-06-01T18:52:57.751Z,54.20
2019-06-01T18:55:27.791Z,54.30
2019-06-01T18:57:59.548Z,54.80
2019-06-01T19:00:29.126Z,55.40
2019-06-01T19:02:59.032Z,55.50
2019-06-01T19:05:28.735Z,56.00
2019-06-01T19:07:58.228Z,56.00
2019-06-01T19:10:27.619Z,55.70
2019-06-01T19:12:56.826Z,56.00
2019-06-01T19:15:28.886Z,56.80
2019-06-01T19:17:57.786Z,57.30
2019-06-01T19:20:27.201Z,57.90
2019-06-01T19:22:56.678Z,58.50
2019-06-01T19:25:26.104Z,58.70
2019-06-01T19:27:57.825Z,59.40
2019-06-01T19:30:43.068Z,59.70
2019-06-01T19:33:15.360Z,59.90
2019-06-01T19:35:43.074Z,60.50
2019-06-01T19:38:13.421Z,60.70
2019-06-01T19:40:43.265Z,61.30
2019-06-01T19:43:13.444Z,61.40
2019-06-01T19:45:43.215Z,62.30
2019-06-01T19:48:12.732Z,62.70
2019-06-01T19:50:42.505Z,63.20
2019-06-01T19:53:12.748Z,63.90
2019-06-01T19:55:42.190Z,63.90
2019-06-01T19:58:12.153Z,64.90
2019-06-01T20:00:41.720Z,65.10
2019-06-01T20:03:12.282Z,65.50
2019-06-01T20:05:41.999Z,66.20
2019-06-01T20:08:12.676Z,66.80
2019-06-01T20:10:43.150Z,66.80
2019-06-01T20:13:13.078Z,67.40
2019-06-01T20:15:42.549Z,67.40
2019-06-01T20:18:12.819Z,68.00
2019-06-01T20:20:42.383Z,68.50
2019-06-01T20:23:13.053Z,68.60
2019-06-01T20:25:43.487Z,68.60
2019-06-01T20:28:14.087Z,69.00
2019-06-01T20:30:44.745Z,69.10
2019-06-01T20:33:14.213Z,69.50
2019-06-01T20:35:44.173Z,69.80
2019-06-01T20:38:14.336Z,70.20
2019-06-01T20:40:44.496Z,70.10
2019-06-01T20:43:14.685Z,70.00
2019-06-01T20:45:44.643Z,70.10
2019-06-01T20:48:15.113Z,70.30
2019-06-01T20:50:44.795Z,70.90
2019-06-01T20:53:14.888Z,71.30
2019-06-01T20:55:45.115Z,71.60
2019-06-01T20:58:16.205Z,72.10
2019-06-01T21:00:46.019Z,72.40
2019-06-01T21:03:15.643Z,72.70
2019-06-01T21:05:45.184Z,73.10
2019-06-01T21:08:15.949Z,73.50
2019-06-01T21:10:45.605Z,74.30
2019-06-01T21:13:15.971Z,74.40
2019-06-01T21:15:45.278Z,74.30
2019-06-01T21:18:16.164Z,74.60
2019-06-01T21:20:46.025Z,74.70
2019-06-01T21:23:16.510Z,75.30
2019-06-01T21:25:46.301Z,75.30
2019-06-01T21:28:17.987Z,75.20
2019-06-01T21:30:47.151Z,75.40
2019-06-01T21:33:17.036Z,75.60
2019-06-01T21:35:46.162Z,75.20
2019-06-01T21:38:15.656Z,75.80
2019-06-01T21:40:44.819Z,76.00
2019-06-01T21:43:26.025Z,76.30
2019-06-01T21:45:45.805Z,76.60
2019-06-01T21:48:15.587Z,76.90
2019-06-01T21:50:45.126Z,77.20
2019-06-01T21:53:15.962Z,77.60
2019-06-01T21:55:45.954Z,77.70
2019-06-01T21:58:18.814Z,78.30
2019-06-01T22:00:50.000Z,78.60
2019-06-01T22:03:19.190Z,78.70
2019-06-01T22:05:48.960Z,78.80
2019-06-01T22:08:19.127Z,79.90
2019-06-01T22:10:48.362Z,79.40
2019-06-01T22:13:20.878Z,79.50
2019-06-01T22:15:49.086Z,80.00
2019-06-01T22:18:19.577Z,80.10
2019-06-01T22:20:50.909Z,80.20
2019-06-01T22:23:21.794Z,80.60
2019-06-01T22:25:51.472Z,80.80
2019-06-01T22:28:22.175Z,80.90
2019-06-01T22:30:51.380Z,81.30
2019-06-01T22:33:22.655Z,81.40
2019-06-01T22:35:52.353Z,81.60
2019-06-01T22:38:22.043Z,81.90
2019-06-01T22:40:51.517Z,82.40
2019-06-01T22:43:37.112Z,82.70
2019-06-01T22:45:53.222Z,82.80
2019-06-01T22:48:22.604Z,82.90
2019-06-01T22:50:51.694Z,83.40
2019-06-01T22:53:21.916Z,83.50
2019-06-01T22:55:51.426Z,83.50
2019-06-01T22:58:21.318Z,83.70
2019-06-01T23:00:50.930Z,83.60
2019-06-01T23:03:21.759Z,84.00
2019-06-01T23:05:51.415Z,84.10
2019-06-01T23:08:24.067Z,84.40
2019-06-01T23:10:56.045Z,84.50
2019-06-01T23:13:26.205Z,84.60
2019-06-01T23:15:55.943Z,84.70
2019-06-01T23:18:25.686Z,84.80
2019-06-01T23:20:55.409Z,85.10
2019-06-01T23:23:26.055Z,85.00
2019-06-01T23:25:55.210Z,85.60
2019-06-01T23:28:24.522Z,85.30
2019-06-01T23:30:54.491Z,85.70
2019-06-01T23:33:24.737Z,85.80
2019-06-01T23:35:55.089Z,85.90
2019-06-01T23:38:24.541Z,86.10
2019-06-01T23:40:53.994Z,86.50
2019-06-01T23:43:24.364Z,86.50
2019-06-01T23:45:54.182Z,86.70
2019-06-01T23:48:25.033Z,86.90
2019-06-01T23:50:54.534Z,86.90
2019-06-01T23:53:23.615Z,87.30
2019-06-01T23:55:52.655Z,87.00
2019-06-01T23:58:22.429Z,86.70
